Terminal Aerodrome Forecast
Issued by NWS

Home | Current Version | Previous Version | Text Only | Print | Product List | Glossary On
Versions: 1 2 3 4 5 6 7 8 9 10 11 12 13 14 15 16 17 18 19 20
000
FTUS43 KLSX 282300
TAFSUS
TAF
KSUS 282322Z 2900/2924 VRB03KT P6SM SKC
     FM290700 00000KT 3SM BR SKC
      TEMPO 2908/2912 1SM BR
     FM291400 VRB03KT P6SM SKC=

USA.gov is the U.S. government's official web portal to all federal, state and local government web resources and services.